Latest Weather Observations for Mackay Airport

IDQ60801

Issued at 10:05 am EST Tuesday 25 November 2014 (issued every 30 minutes, with the page automatically refreshed every 10 minutes)

About weather observations | Map of weather stations | Latest weather observations for QLD | Other Formats
Station Details ID: 033045 Name: MACKAY AERO Lat: -21.17 Lon: 149.18 Height: 4.7 m
Data from the previous 72 hours. | See also: Recent months at Mackay Airport
Date/Time
EST
Temp
°C
App
Temp
°C
Dew
Point
Rel
Hum
%
Delta-T
°C
Wind Press
QNH
hPa
Press
MSL
hPa
Rain
since 9 am
mm
Dir
 
Spd
km/h
Gust
km/h
Spd
kts
Gust
kts
25/10:00am 29.1 29.4 20.8 61 5.5 ESE 20 28 11 15 1014.5 1014.5 0.0
25/09:30am 28.8 29.4 21.3 64 5.0 E 20 26 11 14 1014.6 1014.6 0.0
25/09:00am 28.1 28.3 20.6 63 4.9 ESE 20 24 11 13 1014.6 1014.6 0.0
25/08:30am 28.6 30.2 22.1 68 4.4 E 17 24 9 13 1014.5 1014.5 0.0
25/08:00am 28.5 30.3 21.8 67 4.5 E 15 22 8 12 1014.4 1014.4 0.0
25/07:30am 26.8 27.2 20.6 69 4.1 E 19 22 10 12 1014.2 1014.2 0.0
25/07:00am 26.3 29.8 22.2 78 2.8 SSW 7 9 4 5 1014.0 1014.0 0.0
25/06:30am 23.5 26.7 21.2 87 1.5 SSW 6 9 3 5 1013.9 1013.9 0.0
25/06:00am 22.1 24.6 21.1 94 0.7 ENE 9 11 5 6 1013.7 1013.7 0.0
25/05:30am 21.3 23.5 20.3 94 0.6 ENE 9 11 5 6 1013.5 1013.5 0.0
25/05:00am 20.8 22.7 19.8 94 0.6 NE 9 11 5 6 1013.3 1013.3 0.0
25/04:30am 21.0 24.6 19.8 93 0.8 CALM 0 0 0 0 1013.1 1013.1 0.0
25/04:00am 21.7 25.7 20.5 93 0.8 CALM 0 0 0 0 1012.8 1012.8 0.0
25/03:30am 21.7 23.9 20.5 93 0.8 NE 9 9 5 5 1012.9 1012.9 0.0
25/03:00am 21.9 24.3 20.0 89 1.2 NE 7 9 4 5 1012.9 1012.9 0.0
25/02:30am 23.8 26.8 20.1 80 2.4 NE 4 9 2 5 1012.9 1012.9 0.0
25/02:00am 25.0 27.5 21.1 79 2.6 NE 9 13 5 7 1013.0 1013.0 0.0
25/01:30am 25.2 27.0 21.1 78 2.7 NE 13 15 7 8 1013.2 1013.2 0.0
25/01:00am 25.5 27.4 21.4 78 2.7 NE 13 19 7 10 1013.5 1013.5 0.0
25/12:30am 25.5 26.9 21.0 76 3.0 NE 15 19 8 10 1013.8 1013.8 0.0
25/12:00am 25.5 27.2 21.0 76 3.0 ENE 13 19 7 10 1014.2 1014.2 0.0
 
Date/Time
EST
Temp
°C
App
Temp
°C
Dew
Point
Rel
Hum
%
Delta-T
°C
Wind Press
QNH
hPa
Press
MSL
hPa
Rain
since 9 am
mm
Dir
 
Spd
km/h
Gust
km/h
Spd
kts
Gust
kts
24/11:30pm 25.7 27.7 21.6 78 2.7 NE 13 17 7 9 1014.4 1014.4 0.0
24/11:00pm 25.6 28.0 21.5 78 2.7 NE 11 15 6 8 1014.6 1014.6 0.0
24/10:30pm 25.9 27.3 21.1 75 3.2 NE 15 19 8 10 1014.7 1014.7 0.0
24/10:00pm 25.8 27.8 21.5 77 2.9 ENE 13 19 7 10 1014.8 1014.8 0.0
24/09:30pm 26.0 28.2 21.9 78 2.7 NE 13 17 7 9 1014.8 1014.8 0.0
24/09:00pm 25.9 27.8 22.0 79 2.6 ENE 15 20 8 11 1014.4 1014.4 0.0
24/08:30pm 26.0 27.6 22.1 79 2.6 NE 17 20 9 11 1014.2 1014.2 0.0
24/08:00pm 26.0 27.3 21.7 77 2.9 ENE 17 22 9 12 1014.0 1014.0 0.0
24/07:30pm 26.0 27.2 21.4 76 3.1 ENE 17 22 9 12 1013.6 1013.6 0.0
24/07:00pm 26.0 27.8 21.9 78 2.7 ENE 15 20 8 11 1013.4 1013.4 0.0
24/06:30pm 26.3 27.9 21.5 75 3.2 ENE 15 22 8 12 1013.1 1013.1 0.0
24/06:00pm 26.6 26.9 20.7 70 3.9 E 20 24 11 13 1012.9 1012.9 0.0
24/05:30pm 27.4 27.8 21.7 71 3.8 ENE 22 28 12 15 1012.6 1012.6 0.0
24/05:00pm 28.0 27.9 20.8 65 4.8 ENE 22 28 12 15 1012.5 1012.5 0.0
24/04:30pm 28.5 28.8 22.3 69 4.2 ENE 24 32 13 17 1012.4 1012.4 0.0
24/04:00pm 28.3 28.0 21.1 65 4.8 ENE 24 30 13 16 1012.6 1012.6 0.0
24/03:30pm 29.3 29.2 21.5 63 5.2 ENE 24 32 13 17 1012.6 1012.6 0.0
24/03:00pm 28.8 28.5 21.8 66 4.7 E 26 35 14 19 1013.0 1013.0 0.0
24/02:30pm 28.2 28.2 21.7 68 4.4 E 24 30 13 16 1013.2 1013.2 0.0
24/02:00pm 29.1 29.5 21.8 64 4.9 E 22 30 12 16 1013.4 1013.4 0.0
24/01:30pm 29.2 29.6 20.9 61 5.5 ENE 20 28 11 15 1013.8 1013.8 0.0
24/01:00pm 27.7 27.9 20.5 65 4.7 E 20 26 11 14 1014.2 1014.2 0.0
24/12:30pm 27.5 27.6 20.3 65 4.7 E 20 24 11 13 1014.6 1014.6 0.0
24/12:00pm 29.2 29.2 21.7 64 5.0 E 24 30 13 16 1014.9 1014.9 0.0
24/11:30am 29.7 30.8 21.9 63 5.3 E 19 26 10 14 1015.1 1015.1 0.0
24/11:00am 29.0 30.4 21.0 62 5.3 ENE 15 22 8 12 1015.5 1015.5 0.0
24/10:30am 27.9 28.2 19.7 61 5.3 ENE 17 22 9 12 1015.8 1015.8 0.0
24/10:00am 28.6 28.7 19.2 56 6.1 NNE 17 24 9 13 1015.8 1015.8 0.0
24/09:30am 27.9 28.5 20.2 63 5.0 NNE 17 22 9 12 1015.7 1015.7 0.0
24/09:00am 26.6 26.6 20.9 71 3.8 NNE 22 28 12 15 1016.0 1016.0 0.0
24/08:30am 25.4 24.8 21.3 78 2.7 NE 26 33 14 18 1016.1 1016.1 0.0
24/08:00am 25.1 23.4 21.4 80 2.4 ENE 32 41 17 22 1016.0 1016.0 0.0
24/07:30am 25.8 23.8 21.2 76 3.0 ENE 33 41 18 22 1015.6 1015.6 0.0
24/07:22am 26.2 25.8 22.3 79 2.6 ENE 28 35 15 19 1015.6 1015.6 0.0
24/07:00am 25.2 28.6 22.7 86 1.7 SW 9 11 5 6 1015.4 1015.4 0.0
24/06:30am 24.0 27.2 21.7 87 1.5 SSW 7 9 4 5 1015.1 1015.1 0.0
24/06:00am 22.4 25.3 21.0 92 0.9 WSW 7 9 4 5 1015.1 1015.1 0.0
24/05:30am 22.4 25.4 21.2 93 0.8 SSW 7 9 4 5 1014.8 1014.8 0.0
24/05:00am 22.9 26.0 21.5 92 0.9 SSW 7 9 4 5 1014.4 1014.4 0.0
24/04:30am 23.3 26.8 21.9 92 0.9 S 6 9 3 5 1014.2 1014.2 0.0
24/04:00am 22.4 25.0 21.2 93 0.8 SSW 9 9 5 5 1014.0 1014.0 0.0
24/03:30am 22.5 24.8 21.3 93 0.8 S 11 13 6 7 1014.0 1014.0 0.0
24/03:00am 22.6 25.6 21.2 92 0.9 SE 7 11 4 6 1014.1 1014.1 0.0
24/02:30am 22.4 24.9 21.0 92 0.9 WNW 9 9 5 5 1014.2 1014.2 0.0
24/02:00am 22.6 25.1 21.1 91 1.0 WNW 9 9 5 5 1014.3 1014.3 0.0
24/01:30am 22.3 24.8 20.2 88 1.4 WNW 7 9 4 5 1014.5 1014.5 0.0
24/01:00am 24.1 26.9 20.8 82 2.2 N 7 13 4 7 1014.8 1014.8 0.0
24/12:30am 25.6 28.1 21.7 79 2.6 NNE 11 17 6 9 1015.2 1015.2 0.0
24/12:00am 25.5 27.5 21.6 79 2.6 NE 13 17 7 9 1015.6 1015.6 0.0
 
Date/Time
EST
Temp
°C
App
Temp
°C
Dew
Point
Rel
Hum
%
Delta-T
°C
Wind Press
QNH
hPa
Press
MSL
hPa
Rain
since 9 am
mm
Dir
 
Spd
km/h
Gust
km/h
Spd
kts
Gust
kts
23/11:30pm 25.8 27.6 21.9 79 2.6 NE 15 19 8 10 1015.7 1015.7 0.0
23/11:00pm 26.1 28.1 22.2 79 2.6 ENE 15 20 8 11 1016.1 1016.1 0.0
23/10:30pm 26.0 27.9 22.1 79 2.6 ENE 15 20 8 11 1015.9 1015.9 0.0
23/10:00pm 26.0 27.9 22.1 79 2.6 NE 15 19 8 10 1015.8 1015.8 0.0
23/09:30pm 25.9 27.8 22.0 79 2.6 ENE 15 20 8 11 1015.6 1015.6 0.0
23/09:00pm 25.8 28.1 22.1 80 2.5 ENE 13 17 7 9 1015.3 1015.3 0.0
23/08:30pm 25.7 27.7 21.6 78 2.7 ENE 13 17 7 9 1015.0 1015.0 0.0
23/08:00pm 25.9 28.3 22.2 80 2.5 ENE 13 17 7 9 1014.7 1014.7 0.0
23/07:30pm 25.9 28.3 22.2 80 2.5 ENE 13 19 7 10 1014.6 1014.6 0.0
23/07:00pm 26.1 27.6 22.0 78 2.7 ENE 17 20 9 11 1014.3 1014.3 0.0
23/06:30pm 26.3 27.7 21.9 77 2.9 ENE 17 22 9 12 1014.2 1014.2 0.0
23/06:00pm 26.7 28.3 22.1 76 3.1 ENE 17 22 9 12 1013.9 1013.9 0.0
23/05:30pm 27.3 28.1 21.8 72 3.7 ENE 20 26 11 14 1013.9 1013.9 0.0
23/05:00pm 27.6 28.5 21.9 71 3.8 ENE 20 28 11 15 1013.8 1013.8 0.0
23/04:30pm 28.6 28.9 22.3 68 4.3 ENE 24 30 13 16 1013.7 1013.7 0.0
23/04:00pm 28.1 28.1 21.6 68 4.3 ENE 24 30 13 16 1013.6 1013.6 0.0
23/03:30pm 28.6 28.6 21.6 66 4.7 E 24 33 13 18 1013.8 1013.8 0.0
23/03:00pm 28.7 28.2 21.5 65 4.8 ENE 26 32 14 17 1013.9 1013.9 0.0
23/02:30pm 29.5 29.5 21.7 63 5.2 E 24 32 13 17 1014.1 1014.1 0.0
23/02:00pm 30.2 30.2 22.4 63 5.3 ENE 26 33 14 18 1014.3 1014.3 0.0
23/01:30pm 30.6 30.9 23.0 64 5.2 ENE 26 32 14 17 1014.8 1014.8 0.0
23/01:00pm 30.0 29.9 22.2 63 5.3 ENE 26 32 14 17 1015.1 1015.1 0.0
23/12:30pm 29.2 28.8 20.9 61 5.5 E 24 32 13 17 1015.5 1015.5 0.0
23/12:00pm 29.5 29.7 21.4 61 5.4 E 22 30 12 16 1015.7 1015.7 0.0
23/11:30am 29.7 29.9 21.4 61 5.6 E 22 30 12 16 1016.1 1016.1 0.0
23/11:00am 29.3 30.1 21.8 64 5.0 E 20 26 11 14 1016.4 1016.4 0.0
23/10:30am 29.5 30.5 21.7 63 5.2 ENE 19 26 10 14 1016.7 1016.7 0.0
23/10:00am 29.7 30.6 21.6 61 5.4 E 19 24 10 13 1016.6 1016.6 0.0
23/09:30am 28.8 29.5 21.6 65 4.8 ENE 20 26 11 14 1016.6 1016.6 0.0
23/09:00am 29.0 30.5 22.0 66 4.7 ENE 17 22 9 12 1016.7 1016.7 0.0
23/08:30am 27.9 29.1 21.4 67 4.3 ENE 17 22 9 12 1016.6 1016.6 0.0
23/08:00am 27.0 28.2 20.6 68 4.2 NE 15 19 8 10 1016.4 1016.4 0.0
23/07:30am 28.0 29.8 21.8 69 4.2 NE 15 20 8 11 1016.0 1016.0 0.0
23/07:00am 25.8 29.8 22.1 80 2.5 S 4 6 2 3 1016.0 1016.0 0.0
23/06:30am 24.4 28.8 22.1 87 1.5 S 2 6 1 3 1015.5 1015.5 0.0
23/06:00am 22.9 26.1 21.7 93 0.8 SSW 7 9 4 5 1015.2 1015.2 0.0
23/05:30am 21.8 24.2 20.8 94 0.6 SSW 9 11 5 6 1014.8 1014.8 0.0
23/05:00am 22.0 24.6 21.2 95 0.5 SSE 9 11 5 6 1014.5 1014.5 0.0
23/04:30am 21.2 23.3 20.2 94 0.6 S 9 9 5 5 1014.2 1014.2 0.0
23/04:00am 21.2 23.3 20.2 94 0.6 S 9 11 5 6 1014.1 1014.1 0.0
23/03:30am 21.8 24.0 20.4 92 0.9 NNE 9 11 5 6 1013.9 1013.9 0.0
23/03:00am 21.7 24.8 19.6 88 1.3 NNE 2 9 1 5 1013.9 1013.9 0.0
23/02:30am 23.0 27.3 21.1 89 1.2 CALM 0 0 0 0 1013.9 1013.9 0.0
23/02:00am 23.5 26.4 21.0 86 1.6 NNE 7 9 4 5 1014.0 1014.0 0.0
23/01:30am 23.4 26.0 20.5 84 1.9 NNE 7 7 4 4 1014.1 1014.1 0.0
23/01:00am 24.7 27.4 21.4 82 2.2 NNE 9 13 5 7 1014.3 1014.3 0.0
23/12:30am 24.3 27.2 21.8 86 1.7 N 9 13 5 7 1014.6 1014.6 0.0
23/12:00am 24.3 27.8 21.8 86 1.7 N 6 7 3 4 1015.2 1015.2 0.0
 
Date/Time
EST
Temp
°C
App
Temp
°C
Dew
Point
Rel
Hum
%
Delta-T
°C
Wind Press
QNH
hPa
Press
MSL
hPa
Rain
since 9 am
mm
Dir
 
Spd
km/h
Gust
km/h
Spd
kts
Gust
kts
22/11:30pm 24.4 27.3 21.1 82 2.2 N 7 11 4 6 1015.3 1015.3 0.0
22/11:00pm 25.4 27.6 21.9 81 2.3 N 13 15 7 8 1015.4 1015.4 0.0
22/10:30pm 25.2 28.2 21.9 82 2.2 NNE 9 11 5 6 1015.4 1015.4 0.0
22/10:00pm 25.8 29.1 22.5 82 2.2 NNE 9 13 5 7 1015.4 1015.4 0.0
22/09:30pm 25.7 28.6 21.8 79 2.6 NNE 9 13 5 7 1015.2 1015.2 0.0
22/09:00pm 26.0 28.6 21.9 78 2.7 NNE 11 15 6 8 1014.8 1014.8 0.0
22/08:30pm 26.1 28.2 21.7 77 2.9 NE 13 19 7 10 1014.5 1014.5 0.0
22/08:00pm 26.3 27.6 21.7 76 3.1 NE 17 22 9 12 1014.3 1014.3 0.0
22/07:30pm 26.5 27.8 21.7 75 3.2 NE 17 22 9 12 1014.0 1014.0 0.0
22/07:00pm 26.5 27.8 21.7 75 3.2 NE 17 22 9 12 1013.5 1013.5 0.0
22/06:30pm 26.7 28.0 21.7 74 3.3 NE 17 20 9 11 1013.2 1013.2 0.0
22/06:00pm 27.1 28.3 22.1 74 3.4 NE 19 24 10 13 1012.8 1012.8 0.0
22/05:30pm 27.6 28.1 21.9 71 3.8 ENE 22 28 12 15 1012.6 1012.6 0.0
22/05:00pm 28.0 28.6 21.3 67 4.5 NE 20 26 11 14 1012.3 1012.3 0.0
22/04:30pm 29.3 30.1 22.5 67 4.6 ENE 22 26 12 14 1012.2 1012.2 0.0
22/04:00pm 29.0 29.1 21.2 62 5.2 NE 22 28 12 15 1012.1 1012.1 0.0
22/03:30pm 29.2 29.4 21.4 63 5.2 ENE 22 30 12 16 1012.2 1012.2 0.0
22/03:00pm 29.3 29.1 21.3 62 5.3 ENE 24 32 13 17 1012.4 1012.4 0.0
22/02:30pm 30.1 30.3 22.0 62 5.5 ENE 24 30 13 16 1012.8 1012.8 0.0
22/02:00pm 29.5 29.4 22.2 65 4.9 ENE 26 30 14 16 1013.1 1013.1 0.0
22/01:30pm 29.8 30.2 21.7 61 5.4 ENE 22 28 12 15 1013.7 1013.7 0.0
22/01:00pm 29.3 29.6 21.5 63 5.2 ENE 22 30 12 16 1014.0 1014.0 0.0
22/12:30pm 30.5 31.2 22.9 64 5.2 ENE 24 32 13 17 1014.4 1014.4 0.0
22/12:00pm 30.0 28.6 19.7 54 6.7 ENE 26 30 14 16 1014.6 1014.6 0.0
22/11:30am 29.8 30.5 22.3 64 5.1 ENE 22 30 12 16 1015.0 1015.0 0.0
22/11:00am 29.7 29.6 21.4 61 5.6 ENE 24 32 13 17 1015.4 1015.4 0.0
22/10:30am 29.9 30.5 22.1 63 5.3 ENE 22 28 12 15 1015.5 1015.5 0.0

Other Formats:

Comma delimited format used in spreadsheet applications
http://www.bom.gov.au/fwo/IDQ60801/IDQ60801.95367.axf

JavaScript Object Notation format (JSON) in row-major order
http://www.bom.gov.au/fwo/IDQ60801/IDQ60801.95367.json